createdAt,value
2022-09-16T00:04:01.880Z,16.24
2022-09-16T00:09:03.492Z,16.19
2022-09-16T00:14:05.089Z,16.15
2022-09-16T00:19:07.081Z,16.00
2022-09-16T00:24:13.353Z,15.91
2022-09-16T00:29:14.981Z,15.76
2022-09-16T00:34:16.405Z,15.56
2022-09-16T00:39:17.925Z,15.48
2022-09-16T00:44:50.396Z,15.47
2022-09-16T00:49:55.709Z,15.43
2022-09-16T00:54:58.601Z,15.30
2022-09-16T01:00:01.224Z,15.22
2022-09-16T01:05:07.968Z,15.18
2022-09-16T01:10:09.741Z,15.17
2022-09-16T01:15:12.882Z,15.16
2022-09-16T01:20:45.597Z,15.24
2022-09-16T01:26:02.689Z,15.31
2022-09-16T01:31:33.944Z,15.24
2022-09-16T01:36:50.483Z,15.12
2022-09-16T01:41:57.895Z,15.10
2022-09-16T01:47:05.745Z,15.11
2022-09-16T01:52:19.075Z,15.10
2022-09-16T01:57:35.113Z,15.07
2022-09-16T02:02:40.584Z,15.11
2022-09-16T02:07:49.930Z,15.20
2022-09-16T02:12:54.380Z,15.29
2022-09-16T02:18:04.967Z,15.39
2022-09-16T02:23:16.031Z,15.47
2022-09-16T02:28:26.162Z,15.56
2022-09-16T02:33:35.700Z,15.60
2022-09-16T02:38:41.827Z,15.62
2022-09-16T02:43:45.697Z,15.64
2022-09-16T02:48:55.556Z,15.68
2022-09-16T02:54:10.387Z,15.71
2022-09-16T02:59:13.213Z,15.71
2022-09-16T03:04:17.346Z,15.74
2022-09-16T03:09:19.133Z,15.73
2022-09-16T03:14:32.569Z,15.75
2022-09-16T03:20:10.492Z,15.75
2022-09-16T03:25:34.048Z,15.80
2022-09-16T03:30:41.680Z,15.81
2022-09-16T03:35:47.467Z,15.83
2022-09-16T03:40:49.411Z,15.84
2022-09-16T03:45:51.466Z,15.82
2022-09-16T03:50:52.997Z,15.62
2022-09-16T03:55:54.426Z,15.39
2022-09-16T04:00:56.275Z,15.31
2022-09-16T04:05:57.862Z,15.24
2022-09-16T04:11:02.129Z,15.24
2022-09-16T04:16:04.941Z,15.30
2022-09-16T04:21:06.374Z,15.35
2022-09-16T04:26:08.398Z,15.37
2022-09-16T04:31:14.843Z,15.46
2022-09-16T04:36:19.433Z,15.51
2022-09-16T04:41:23.142Z,15.50
2022-09-16T04:46:26.719Z,15.44
2022-09-16T04:51:29.179Z,15.38
2022-09-16T04:56:32.589Z,15.41
2022-09-16T05:01:37.149Z,15.49
2022-09-16T05:06:41.610Z,15.56
2022-09-16T05:11:43.092Z,15.59
2022-09-16T05:16:45.360Z,15.61
2022-09-16T05:21:46.789Z,15.62
2022-09-16T05:26:48.168Z,15.65
2022-09-16T05:31:49.581Z,15.65
2022-09-16T05:36:54.009Z,15.65
2022-09-16T05:41:58.221Z,15.65
2022-09-16T05:46:59.709Z,15.67
2022-09-16T05:52:01.258Z,15.69
2022-09-16T05:57:07.232Z,15.69
2022-09-16T06:02:09.168Z,15.66
2022-09-16T06:07:10.684Z,15.49
2022-09-16T06:12:12.368Z,15.32
2022-09-16T06:17:13.881Z,15.22
2022-09-16T06:22:15.396Z,15.16
2022-09-16T06:27:17.549Z,15.09
2022-09-16T06:32:19.009Z,15.08
2022-09-16T06:37:21.150Z,14.91
2022-09-16T06:42:22.563Z,14.70
2022-09-16T06:47:24.145Z,14.70
2022-09-16T06:52:26.696Z,14.75
2022-09-16T06:57:28.170Z,14.91
2022-09-16T07:02:31.287Z,15.14
2022-09-16T07:07:33.875Z,15.27
2022-09-16T07:12:35.338Z,15.41
2022-09-16T07:17:36.791Z,15.64
2022-09-16T07:22:38.289Z,15.87
2022-09-16T07:27:39.861Z,15.94
2022-09-16T07:32:41.363Z,15.97
2022-09-16T07:37:42.954Z,16.22
2022-09-16T07:42:44.653Z,16.54
2022-09-16T07:47:50.770Z,16.79
2022-09-16T07:52:56.438Z,16.94
2022-09-16T07:57:57.843Z,17.03
2022-09-16T08:02:59.451Z,17.16
2022-09-16T08:08:01.194Z,17.08
2022-09-16T08:13:04.014Z,16.97
2022-09-16T08:18:05.562Z,16.82
2022-09-16T08:23:07.297Z,16.59
2022-09-16T08:28:16.046Z,16.42
2022-09-16T08:33:21.106Z,16.38
2022-09-16T08:38:22.523Z,16.34
2022-09-16T08:43:36.713Z,16.25
2022-09-16T08:48:57.715Z,16.14
2022-09-16T08:54:03.871Z,16.15
2022-09-16T08:59:11.891Z,16.09
2022-09-16T09:04:14.267Z,16.01
2022-09-16T09:09:39.680Z,15.90
2022-09-16T09:15:01.886Z,15.93
2022-09-16T09:20:29.973Z,15.92
2022-09-16T09:26:02.553Z,15.88
2022-09-16T09:31:39.684Z,15.88
2022-09-16T09:37:07.453Z,15.84
2022-09-16T09:42:21.232Z,15.77
2022-09-16T09:47:30.054Z,15.76
2022-09-16T09:52:44.498Z,15.78
2022-09-16T09:58:01.217Z,15.77
2022-09-16T10:03:20.634Z,15.74
2022-09-16T10:08:30.038Z,15.64
2022-09-16T10:13:31.843Z,15.58
2022-09-16T10:18:33.856Z,15.51
2022-09-16T10:23:36.326Z,15.56
2022-09-16T10:28:38.460Z,15.49
2022-09-16T10:33:44.770Z,15.46
2022-09-16T10:39:00.965Z,15.74
2022-09-16T10:44:26.216Z,15.88
2022-09-16T10:49:50.359Z,15.87
2022-09-16T10:54:53.038Z,15.81
2022-09-16T10:59:57.521Z,16.17
2022-09-16T11:05:31.585Z,16.53
2022-09-16T11:10:49.780Z,16.82
2022-09-16T11:15:56.889Z,17.46
2022-09-16T11:21:30.350Z,17.82
2022-09-16T11:26:58.642Z,18.26
2022-09-16T11:32:05.429Z,18.62
2022-09-16T11:37:43.071Z,19.01
2022-09-16T11:43:04.216Z,19.40
2022-09-16T11:48:17.886Z,19.35
2022-09-16T11:53:24.617Z,19.38
2022-09-16T11:58:56.974Z,19.40
2022-09-16T12:04:20.476Z,19.37
2022-09-16T12:09:36.691Z,19.35
2022-09-16T12:14:43.819Z,19.57
2022-09-16T12:19:58.018Z,19.80
2022-09-16T12:25:12.506Z,19.68
2022-09-16T12:30:26.414Z,19.58
2022-09-16T12:35:38.147Z,19.42
2022-09-16T12:41:12.386Z,19.56
2022-09-16T12:46:37.007Z,19.63
2022-09-16T12:51:50.405Z,19.24
2022-09-16T12:57:13.749Z,19.12
2022-09-16T13:02:22.658Z,20.02
2022-09-16T13:07:32.267Z,20.69
2022-09-16T13:12:41.493Z,20.78
2022-09-16T13:17:48.571Z,20.61
2022-09-16T13:22:55.907Z,20.77
2022-09-16T13:28:01.912Z,20.66
2022-09-16T13:33:09.489Z,20.54
2022-09-16T13:38:17.072Z,20.43
2022-09-16T13:43:48.129Z,20.40
2022-09-16T13:48:58.735Z,20.52
2022-09-16T13:54:03.569Z,20.66
2022-09-16T13:59:16.255Z,20.66
2022-09-16T14:04:28.435Z,20.49
2022-09-16T14:09:33.003Z,20.27
2022-09-16T14:14:47.098Z,20.00
2022-09-16T14:19:52.814Z,19.85
2022-09-16T14:25:05.984Z,19.81
2022-09-16T14:30:17.335Z,20.03
2022-09-16T14:35:23.268Z,20.40
2022-09-16T14:40:26.751Z,20.23
2022-09-16T14:45:30.469Z,19.90
2022-09-16T14:50:37.084Z,19.70
2022-09-16T14:55:48.738Z,19.61
2022-09-16T15:00:55.251Z,19.50
2022-09-16T15:06:04.967Z,19.47
2022-09-16T15:11:29.778Z,19.39
2022-09-16T15:16:42.574Z,19.44
2022-09-16T15:21:44.664Z,19.45
2022-09-16T15:26:47.326Z,19.59
2022-09-16T15:31:50.292Z,19.79
2022-09-16T15:36:53.769Z,19.80
2022-09-16T15:42:20.746Z,19.80
2022-09-16T15:47:29.402Z,19.91
2022-09-16T15:52:49.902Z,19.88
2022-09-16T15:57:56.772Z,19.61
2022-09-16T16:03:01.963Z,19.23
2022-09-16T16:08:09.553Z,18.91
2022-09-16T16:13:11.418Z,18.76
2022-09-16T16:18:12.911Z,18.60
2022-09-16T16:23:14.975Z,18.43
2022-09-16T16:28:16.684Z,18.25
2022-09-16T16:33:18.170Z,18.07
2022-09-16T16:38:19.624Z,17.96
2022-09-16T16:43:21.099Z,17.77
2022-09-16T16:48:23.775Z,17.65
2022-09-16T16:53:25.345Z,17.49
2022-09-16T16:58:26.775Z,17.37
2022-09-16T17:03:30.195Z,17.28
2022-09-16T17:08:31.639Z,17.20
2022-09-16T17:13:33.501Z,17.09
2022-09-16T17:18:36.648Z,16.97
2022-09-16T17:23:38.478Z,16.89
2022-09-16T17:28:41.757Z,16.84
2022-09-16T17:33:44.199Z,16.76
2022-09-16T17:38:45.695Z,16.57
2022-09-16T17:43:49.374Z,16.25
2022-09-16T17:48:51.152Z,16.07
2022-09-16T17:53:52.602Z,15.95
2022-09-16T17:58:54.359Z,15.83
2022-09-16T18:03:56.645Z,15.73
2022-09-16T18:09:01.967Z,15.61
2022-09-16T18:14:06.743Z,15.46
2022-09-16T18:19:08.623Z,15.35
2022-09-16T18:24:13.010Z,15.23
2022-09-16T18:29:14.516Z,15.17
2022-09-16T18:34:17.061Z,15.01
2022-09-16T18:39:18.523Z,14.94
2022-09-16T18:44:23.782Z,14.84
2022-09-16T18:49:27.771Z,14.78
2022-09-16T18:54:29.737Z,14.70
2022-09-16T18:59:32.666Z,14.59
2022-09-16T19:04:38.837Z,14.53
2022-09-16T19:09:40.799Z,14.52
2022-09-16T19:14:42.411Z,14.46
2022-09-16T19:19:44.584Z,14.42
2022-09-16T19:24:46.095Z,14.38
2022-09-16T19:29:47.757Z,14.27
2022-09-16T19:34:49.956Z,14.17
2022-09-16T19:39:51.422Z,14.09
2022-09-16T19:44:53.329Z,14.04
2022-09-16T19:49:54.712Z,14.02
2022-09-16T19:54:56.144Z,13.93
2022-09-16T19:59:57.582Z,13.91
2022-09-16T20:04:58.969Z,13.87
2022-09-16T20:10:00.386Z,13.86
2022-09-16T20:15:02.085Z,13.96
2022-09-16T20:20:05.823Z,14.06
2022-09-16T20:25:22.583Z,14.11
2022-09-16T20:30:24.720Z,14.07
2022-09-16T20:35:26.207Z,14.09
2022-09-16T20:40:27.689Z,14.09
2022-09-16T20:45:29.181Z,14.08
2022-09-16T20:50:30.754Z,14.11
2022-09-16T20:55:32.560Z,14.12
2022-09-16T21:00:33.983Z,14.12
2022-09-16T21:05:35.394Z,14.04
2022-09-16T21:10:39.802Z,13.97
2022-09-16T21:15:41.208Z,13.92
2022-09-16T21:20:43.199Z,13.91
2022-09-16T21:25:44.608Z,13.90
2022-09-16T21:30:46.046Z,13.91
2022-09-16T21:35:51.733Z,13.88
2022-09-16T21:40:57.984Z,13.86
2022-09-16T21:46:00.471Z,13.82
2022-09-16T21:51:05.545Z,13.76
2022-09-16T21:56:08.851Z,13.62
2022-09-16T22:01:20.430Z,13.50
2022-09-16T22:06:22.703Z,13.35
2022-09-16T22:11:26.540Z,13.28
2022-09-16T22:16:30.957Z,13.32
2022-09-16T22:21:34.609Z,13.32
2022-09-16T22:26:36.819Z,13.19
2022-09-16T22:31:41.284Z,13.08
2022-09-16T22:36:42.894Z,12.93
2022-09-16T22:41:44.363Z,12.89
2022-09-16T22:46:48.083Z,12.99
2022-09-16T22:51:49.494Z,13.09
2022-09-16T22:56:50.939Z,13.15
2022-09-16T23:01:52.604Z,13.14
2022-09-16T23:06:54.377Z,12.98
2022-09-16T23:11:55.918Z,12.87
2022-09-16T23:16:57.319Z,12.72
2022-09-16T23:21:58.695Z,12.65
2022-09-16T23:27:00.103Z,12.64
2022-09-16T23:32:03.253Z,12.74
2022-09-16T23:37:04.750Z,12.82
2022-09-16T23:42:06.236Z,12.86
2022-09-16T23:47:07.613Z,12.88
2022-09-16T23:52:09.293Z,12.88
2022-09-16T23:57:10.698Z,12.84
